Terminal Aerodrome Forecast
Issued by NWS

Home | Current Version | Previous Version | Text Only | Print | Product List | Glossary On
Versions: 1 2 3 4 5 6 7 8 9 10 11 12 13 14 15 16 17
000
FTUS43 KDTX 171732
TAFDET
TAF
KDET 171732Z 1718/1818 10007KT 4SM HZ OVC008
     FM172200 16005KT 6SM HZ BKN015 OVC150
     FM180100 20005KT 2SM BR SCT006 BKN200
     FM180500 23005KT 4SM BR OVC006
      TEMPO 1810/1814 2SM BR OVC003=

USA.gov is the U.S. government's official web portal to all federal, state and local government web resources and services.